RYR2JL EPMO-LPPT
Flight info
| Callsign | RYR2JL |
|---|---|
| Flight time | N/A |
| Altitude | 37000 |
| Route | OLILA L621 GRUDA DCT ALUKA DCT POVEL DCT NVO DCT IDOSA UN857 TOLVU DCT RAPOR DCT ESTOC UT300 PON UN872 ERIGA DCT FUJTI DCT ATLEN DCT ABUPI DCT XAMAX |
| Aircraft | B38M/M-SADE3FGILRWY/SB1 |
Departure
| Time | 2026-05-05 12:26 |
|---|---|
| Airport | Warsaw Modlin Airport (EPMO) |
Arrival
| Time | N/A |
|---|---|
| Airport | Lisbon Humberto Delgado Airport (LPPT) |
| Time | Latitude | Longitude | Altitude | Speed | Heading |
|---|---|---|---|---|---|
| 2026-05-05 11:48 | 52.44744 | 20.65258 | 337 ft | 0 kts | 206° |
| 2026-05-05 12:13 | 52.44745 | 20.65259 | 340 ft | 1 kts | 206° |
| 2026-05-05 12:14 | 52.44764 | 20.65274 | 329 ft | 3 kts | 206° |
| 2026-05-05 12:14 | 52.44781 | 20.65288 | 336 ft | 3 kts | 211° |
| 2026-05-05 12:14 | 52.44796 | 20.65312 | 339 ft | 3 kts | 256° |
| 2026-05-05 12:14 | 52.44800 | 20.65345 | 339 ft | 3 kts | 261° |
| 2026-05-05 12:15 | 52.44801 | 20.65357 | 339 ft | 1 kts | 261° |
| 2026-05-05 12:20 | 52.44801 | 20.65356 | 339 ft | 1 kts | 261° |
| 2026-05-05 12:20 | 52.44794 | 20.65288 | 339 ft | 13 kts | 261° |
| 2026-05-05 12:20 | 52.44775 | 20.65090 | 338 ft | 20 kts | 261° |
| 2026-05-05 12:21 | 52.44753 | 20.64853 | 340 ft | 18 kts | 262° |
| 2026-05-05 12:21 | 52.44734 | 20.64656 | 339 ft | 18 kts | 261° |
| 2026-05-05 12:21 | 52.44714 | 20.64451 | 340 ft | 19 kts | 261° |
| 2026-05-05 12:21 | 52.44693 | 20.64227 | 340 ft | 21 kts | 261° |
| 2026-05-05 12:22 | 52.44671 | 20.63988 | 340 ft | 22 kts | 261° |
| 2026-05-05 12:22 | 52.44647 | 20.63736 | 339 ft | 18 kts | 261° |
| 2026-05-05 12:22 | 52.44628 | 20.63539 | 340 ft | 13 kts | 263° |
| 2026-05-05 12:22 | 52.44682 | 20.63444 | 339 ft | 13 kts | 352° |
| 2026-05-05 12:23 | 52.44737 | 20.63430 | 340 ft | 0 kts | 352° |
| 2026-05-05 12:23 | 52.44738 | 20.63430 | 340 ft | 1 kts | 352° |
| 2026-05-05 12:23 | 52.44772 | 20.63422 | 339 ft | 11 kts | 352° |
| 2026-05-05 12:24 | 52.44878 | 20.63395 | 340 ft | 18 kts | 351° |
| 2026-05-05 12:24 | 52.44952 | 20.63396 | 341 ft | 4 kts | 60° |
| 2026-05-05 12:24 | 52.44955 | 20.63414 | 338 ft | 0 kts | 81° |
| 2026-05-05 12:25 | 52.44957 | 20.63441 | 339 ft | 8 kts | 81° |
| 2026-05-05 12:25 | 52.44985 | 20.63719 | 338 ft | 58 kts | 81° |
| 2026-05-05 12:26 | 52.45088 | 20.64822 | 340 ft | 135 kts | 81° |
| 2026-05-05 12:26 | 52.45258 | 20.66648 | 591 ft | 173 kts | 81° |
| 2026-05-05 12:26 | 52.45427 | 20.68531 | 1681 ft | 166 kts | 82° |
| 2026-05-05 12:26 | 52.45621 | 20.70424 | 2552 ft | 172 kts | 83° |
| 2026-05-05 12:27 | 52.45813 | 20.72424 | 3301 ft | 185 kts | 83° |
| 2026-05-05 12:27 | 52.46013 | 20.74595 | 3915 ft | 204 kts | 82° |
| 2026-05-05 12:27 | 52.46663 | 20.76746 | 4464 ft | 225 kts | 46° |
| 2026-05-05 12:27 | 52.48032 | 20.78036 | 5195 ft | 235 kts | 11° |
| 2026-05-05 12:28 | 52.49690 | 20.78099 | 5867 ft | 247 kts | 342° |
| 2026-05-05 12:28 | 52.51179 | 20.76706 | 6474 ft | 252 kts | 310° |
| 2026-05-05 12:28 | 52.52202 | 20.74315 | 7073 ft | 262 kts | 288° |
| 2026-05-05 12:28 | 52.52550 | 20.71356 | 7716 ft | 266 kts | 263° |
| 2026-05-05 12:29 | 52.52477 | 20.68344 | 8734 ft | 268 kts | 267° |
| 2026-05-05 12:29 | 52.52484 | 20.65243 | 9665 ft | 272 kts | 267° |
| 2026-05-05 12:29 | 52.52489 | 20.62100 | 10381 ft | 283 kts | 267° |
| 2026-05-05 12:29 | 52.52500 | 20.58762 | 10816 ft | 301 kts | 267° |
| 2026-05-05 12:30 | 52.52512 | 20.55251 | 11390 ft | 313 kts | 267° |
| 2026-05-05 12:30 | 52.52521 | 20.51662 | 12232 ft | 315 kts | 267° |
| 2026-05-05 12:30 | 52.52523 | 20.48047 | 13053 ft | 318 kts | 266° |
| 2026-05-05 12:30 | 52.52523 | 20.44405 | 13821 ft | 321 kts | 266° |
| 2026-05-05 12:31 | 52.52521 | 20.40712 | 14481 ft | 325 kts | 267° |
| 2026-05-05 12:31 | 52.52518 | 20.36983 | 15129 ft | 329 kts | 267° |
| 2026-05-05 12:31 | 52.52516 | 20.34480 | 15570 ft | 332 kts | 267° |
| 2026-05-05 12:31 | 52.52511 | 20.30684 | 16248 ft | 334 kts | 267° |
| 2026-05-05 12:32 | 52.52504 | 20.26842 | 16895 ft | 339 kts | 268° |
| 2026-05-05 12:32 | 52.52497 | 20.22964 | 17516 ft | 343 kts | 268° |
| 2026-05-05 12:32 | 52.52488 | 20.19036 | 18132 ft | 346 kts | 268° |
| 2026-05-05 12:32 | 52.52478 | 20.15056 | 18651 ft | 350 kts | 268° |
| 2026-05-05 12:33 | 52.52465 | 20.11047 | 19187 ft | 352 kts | 268° |
| 2026-05-05 12:33 | 52.52452 | 20.07030 | 19691 ft | 355 kts | 268° |
| 2026-05-05 12:33 | 52.52437 | 20.02957 | 20171 ft | 359 kts | 268° |
| 2026-05-05 12:33 | 52.52420 | 19.98846 | 20709 ft | 361 kts | 268° |
| 2026-05-05 12:34 | 52.52401 | 19.94712 | 21211 ft | 364 kts | 268° |
| 2026-05-05 12:34 | 52.52382 | 19.90544 | 21717 ft | 367 kts | 268° |
| 2026-05-05 12:34 | 52.52360 | 19.86344 | 22231 ft | 369 kts | 268° |
| 2026-05-05 12:34 | 52.52338 | 19.82123 | 22730 ft | 372 kts | 268° |
| 2026-05-05 12:35 | 52.52313 | 19.77860 | 23240 ft | 375 kts | 268° |
| 2026-05-05 12:35 | 52.52287 | 19.73562 | 23685 ft | 378 kts | 268° |
| 2026-05-05 12:35 | 52.52259 | 19.69238 | 24118 ft | 380 kts | 268° |
| 2026-05-05 12:35 | 52.52229 | 19.64886 | 24538 ft | 382 kts | 268° |
| 2026-05-05 12:36 | 52.52198 | 19.60509 | 24959 ft | 385 kts | 268° |
| 2026-05-05 12:36 | 52.52164 | 19.56103 | 25385 ft | 387 kts | 268° |
| 2026-05-05 12:36 | 52.52128 | 19.51680 | 25780 ft | 389 kts | 268° |
| 2026-05-05 12:36 | 52.52091 | 19.47227 | 26183 ft | 391 kts | 268° |
| 2026-05-05 12:37 | 52.52051 | 19.42759 | 26587 ft | 393 kts | 268° |
| 2026-05-05 12:37 | 52.52010 | 19.38258 | 26975 ft | 396 kts | 268° |
| 2026-05-05 12:37 | 52.51966 | 19.33728 | 27360 ft | 398 kts | 267° |
| 2026-05-05 12:37 | 52.51921 | 19.29176 | 27750 ft | 400 kts | 267° |
| 2026-05-05 12:38 | 52.51875 | 19.24597 | 28147 ft | 402 kts | 267° |
| 2026-05-05 12:38 | 52.51826 | 19.19998 | 28519 ft | 404 kts | 267° |
| 2026-05-05 12:38 | 52.51775 | 19.15377 | 28867 ft | 406 kts | 267° |
| 2026-05-05 12:38 | 52.51721 | 19.10727 | 29229 ft | 408 kts | 267° |
| 2026-05-05 12:39 | 52.51666 | 19.06062 | 29565 ft | 410 kts | 267° |
| 2026-05-05 12:39 | 52.51608 | 19.01379 | 29887 ft | 413 kts | 267° |
| 2026-05-05 12:39 | 52.51548 | 18.96650 | 30178 ft | 415 kts | 267° |
| 2026-05-05 12:39 | 52.51486 | 18.91916 | 30479 ft | 416 kts | 266° |
| 2026-05-05 12:40 | 52.51422 | 18.87154 | 30771 ft | 418 kts | 266° |
| 2026-05-05 12:40 | 52.51356 | 18.82380 | 31062 ft | 419 kts | 266° |
| 2026-05-05 12:40 | 52.51287 | 18.77590 | 31357 ft | 421 kts | 266° |
| 2026-05-05 12:40 | 52.51218 | 18.72783 | 31689 ft | 421 kts | 266° |
| 2026-05-05 12:41 | 52.51145 | 18.67974 | 32025 ft | 422 kts | 266° |
| 2026-05-05 12:41 | 52.51069 | 18.63164 | 32328 ft | 422 kts | 266° |
| 2026-05-05 12:41 | 52.50991 | 18.58359 | 32650 ft | 422 kts | 266° |
| 2026-05-05 12:41 | 52.50911 | 18.53551 | 33043 ft | 421 kts | 266° |
| 2026-05-05 12:42 | 52.50829 | 18.48750 | 33425 ft | 420 kts | 266° |
| 2026-05-05 12:42 | 52.50745 | 18.43968 | 33810 ft | 419 kts | 266° |
| 2026-05-05 12:42 | 52.50661 | 18.39205 | 34141 ft | 417 kts | 266° |
| 2026-05-05 12:42 | 52.50574 | 18.34447 | 34432 ft | 417 kts | 266° |
| 2026-05-05 12:43 | 52.50486 | 18.29694 | 34714 ft | 416 kts | 266° |
| 2026-05-05 12:43 | 52.50395 | 18.24948 | 34992 ft | 416 kts | 266° |
| 2026-05-05 12:43 | 52.50304 | 18.20223 | 35297 ft | 415 kts | 267° |
| 2026-05-05 12:43 | 52.50210 | 18.15502 | 35629 ft | 413 kts | 267° |
| 2026-05-05 12:44 | 52.50114 | 18.10800 | 35880 ft | 413 kts | 267° |
| 2026-05-05 12:44 | 52.50017 | 18.06090 | 36119 ft | 412 kts | 267° |
| 2026-05-05 12:44 | 52.49918 | 18.01388 | 36358 ft | 412 kts | 267° |
| 2026-05-05 12:44 | 52.49818 | 17.96694 | 36582 ft | 412 kts | 267° |
| 2026-05-05 12:45 | 52.49716 | 17.91994 | 36803 ft | 412 kts | 267° |
| 2026-05-05 12:45 | 52.49614 | 17.87304 | 36866 ft | 413 kts | 267° |
| 2026-05-05 12:45 | 52.49402 | 17.77921 | 36851 ft | 410 kts | 267° |
| 2026-05-05 12:46 | 52.49185 | 17.68620 | 36873 ft | 411 kts | 267° |
| 2026-05-05 12:46 | 52.48960 | 17.59286 | 36851 ft | 409 kts | 267° |
| 2026-05-05 12:47 | 52.48728 | 17.49963 | 36858 ft | 409 kts | 266° |
| 2026-05-05 12:47 | 52.48487 | 17.40640 | 36855 ft | 409 kts | 266° |
| 2026-05-05 12:48 | 52.48240 | 17.31335 | 36862 ft | 409 kts | 266° |
| 2026-05-05 12:48 | 52.47986 | 17.22015 | 36849 ft | 409 kts | 266° |
| 2026-05-05 12:49 | 52.47725 | 17.12682 | 36871 ft | 410 kts | 266° |
| 2026-05-05 12:49 | 52.47455 | 17.03344 | 36858 ft | 409 kts | 266° |
| 2026-05-05 12:50 | 52.47179 | 16.94035 | 36859 ft | 410 kts | 266° |
| 2026-05-05 12:50 | 52.46894 | 16.84702 | 36858 ft | 410 kts | 266° |
| 2026-05-05 12:51 | 52.46603 | 16.75374 | 36855 ft | 410 kts | 266° |
| 2026-05-05 12:51 | 52.46304 | 16.66047 | 36857 ft | 410 kts | 266° |
| 2026-05-05 12:52 | 52.46000 | 16.56783 | 36863 ft | 409 kts | 266° |
| 2026-05-05 12:52 | 52.45688 | 16.47505 | 36858 ft | 409 kts | 266° |
| 2026-05-05 12:53 | 52.45368 | 16.38198 | 36860 ft | 409 kts | 266° |
| 2026-05-05 12:53 | 52.45041 | 16.28893 | 36869 ft | 409 kts | 266° |
| 2026-05-05 12:54 | 52.44536 | 16.14950 | 36871 ft | 409 kts | 266° |
| 2026-05-05 12:55 | 52.44191 | 16.05658 | 36877 ft | 408 kts | 266° |
| 2026-05-05 12:55 | 52.43839 | 15.96378 | 36871 ft | 408 kts | 266° |
| 2026-05-05 12:56 | 52.43479 | 15.87094 | 36868 ft | 408 kts | 266° |
| 2026-05-05 12:56 | 52.43113 | 15.77821 | 36868 ft | 408 kts | 265° |
| 2026-05-05 12:57 | 52.42739 | 15.68557 | 36868 ft | 408 kts | 265° |
| 2026-05-05 12:57 | 52.42358 | 15.59281 | 36877 ft | 408 kts | 265° |
| 2026-05-05 12:58 | 52.41970 | 15.50028 | 36876 ft | 406 kts | 265° |
| 2026-05-05 12:58 | 52.41577 | 15.40815 | 36872 ft | 406 kts | 265° |
| 2026-05-05 12:59 | 52.41177 | 15.31609 | 36872 ft | 406 kts | 265° |
| 2026-05-05 12:59 | 52.40769 | 15.22392 | 36875 ft | 406 kts | 265° |
| 2026-05-05 13:00 | 52.40145 | 15.08602 | 36876 ft | 406 kts | 265° |
| 2026-05-05 13:01 | 52.39289 | 14.90212 | 36865 ft | 405 kts | 265° |
| 2026-05-05 13:01 | 52.38850 | 14.81015 | 36858 ft | 405 kts | 265° |
| 2026-05-05 13:02 | 52.38406 | 14.71884 | 36865 ft | 405 kts | 265° |
| 2026-05-05 13:02 | 52.37953 | 14.62694 | 36871 ft | 405 kts | 265° |
| 2026-05-05 13:03 | 52.37492 | 14.53508 | 36878 ft | 405 kts | 264° |
| 2026-05-05 13:03 | 52.37025 | 14.44333 | 36862 ft | 405 kts | 264° |
| 2026-05-05 13:04 | 52.36550 | 14.35144 | 36865 ft | 406 kts | 264° |
| 2026-05-05 13:04 | 52.36067 | 14.25941 | 36871 ft | 406 kts | 264° |
| 2026-05-05 13:05 | 52.35576 | 14.16744 | 36867 ft | 406 kts | 264° |
| 2026-05-05 13:05 | 52.35081 | 14.07570 | 36864 ft | 406 kts | 264° |